Time;durP1;ratioP1;P1;durP2;ratioP2;P2;SDS_P1;SDS_P2;PMS_P1;PMS_P2;Temp;Humidity;BMP_temperature;BMP_pressure;BME280_temperature;BME280_humidity;BME280_pressure;Samples;Min_cycle;Max_cycle;Signal;HPM_P1;HPM_P2
2023/01/17 00:26:21;;;;;;;3.07;2.80;;;2.30;99.90;;;;;;5118637;28;20401;-84
2023/01/17 02:03:07;;;;;;;8.40;2.97;;;1.80;99.90;;;;;;5037912;28;21023;-84
2023/01/17 02:19:00;;;;;;;3.43;2.57;;;1.90;99.90;;;;;;5137444;28;20453;-86
2023/01/17 02:22:16;;;;;;;5.90;2.90;;;1.90;99.90;;;;;;5128938;28;20417;-84
2023/01/17 02:28:15;;;;;;;4.97;2.53;;;1.80;99.90;;;;;;5132914;28;20436;-84
2023/01/17 02:31:53;;;;;;;5.40;3.07;;;1.70;99.90;;;;;;5133081;28;20441;-85
2023/01/17 02:34:33;;;;;;;11.20;2.80;;;1.70;99.90;;;;;;5132126;28;20496;-85
2023/01/17 02:37:42;;;;;;;5.60;2.87;;;1.70;99.90;;;;;;5134292;28;20520;-84
2023/01/17 02:46:32;;;;;;;4.67;2.90;;;1.70;99.90;;;;;;5097462;28;20454;-86
2023/01/17 02:53:24;;;;;;;6.93;2.57;;;1.90;99.90;;;;;;5097730;28;20391;-85
2023/01/17 02:59:06;;;;;;;5.82;4.25;;;1.70;99.90;;;;;;5096075;28;20424;-85
2023/01/17 03:11:15;;;;;;;9.50;3.90;;;1.60;99.90;;;;;;5097933;28;20419;-87
2023/01/17 03:14:04;;;;;;;6.90;3.63;;;1.70;99.90;;;;;;5098842;28;20466;-84
2023/01/17 03:16:49;;;;;;;6.63;3.07;;;1.70;99.90;;;;;;5099361;28;20444;-84
2023/01/17 03:19:26;;;;;;;8.30;4.50;;;1.60;99.90;;;;;;5079335;28;20419;-83
2023/01/17 03:22:27;;;;;;;6.20;3.90;;;1.60;99.90;;;;;;5099224;28;20197;-84
2023/01/17 03:25:13;;;;;;;6.87;4.20;;;1.50;99.90;;;;;;5081986;28;20453;-85
2023/01/17 03:31:39;;;;;;;8.30;4.20;;;1.50;99.90;;;;;;5098848;28;20588;-86
2023/01/17 03:38:11;;;;;;;6.70;4.00;;;1.40;99.90;;;;;;5098657;28;20470;-86
2023/01/17 03:41:16;;;;;;;8.48;5.63;;;1.50;99.90;;;;;;5076620;28;20445;-83
2023/01/17 03:44:29;;;;;;;5.90;4.77;;;1.30;99.90;;;;;;5074349;28;20194;-86
2023/01/17 03:50:05;;;;;;;9.13;4.90;;;1.30;99.90;;;;;;5077735;28;20440;-85
2023/01/17 03:59:24;;;;;;;6.27;5.10;;;1.20;99.90;;;;;;5077662;28;20534;-86
2023/01/17 04:05:20;;;;;;;11.83;6.47;;;1.20;99.90;;;;;;5076475;28;20265;-86
2023/01/17 04:08:27;;;;;;;7.27;5.50;;;1.10;99.90;;;;;;5075412;28;20941;-87
2023/01/17 04:11:00;;;;;;;8.07;5.43;;;1.00;99.90;;;;;;5078158;28;20462;-86
2023/01/17 04:13:54;;;;;;;10.67;5.80;;;1.00;99.90;;;;;;5061453;28;20526;-86
2023/01/17 04:16:49;;;;;;;15.23;6.33;;;0.80;99.90;;;;;;5078065;28;20431;-86
2023/01/17 04:22:53;;;;;;;8.37;5.93;;;0.80;99.90;;;;;;5079722;28;20432;-84
2023/01/17 04:28:21;;;;;;;9.07;5.30;;;0.80;99.90;;;;;;5079978;28;20420;-86
2023/01/17 04:40:21;;;;;;;8.63;5.80;;;0.80;99.90;;;;;;5080073;28;20450;-86
2023/01/17 04:43:13;;;;;;;10.43;6.13;;;0.60;99.90;;;;;;5077613;28;20428;-86
2023/01/17 04:46:22;;;;;;;12.47;6.20;;;0.80;99.90;;;;;;5081064;28;20431;-87
2023/01/17 04:48:52;;;;;;;10.37;5.87;;;0.90;99.90;;;;;;5063700;28;20435;-86
2023/01/17 04:51:26;;;;;;;10.47;6.33;;;0.90;99.90;;;;;;5077425;28;20443;-86
2023/01/17 04:54:31;;;;;;;11.27;6.23;;;0.90;99.90;;;;;;5080871;28;20463;-86
2023/01/17 04:57:21;;;;;;;10.63;5.43;;;0.80;99.90;;;;;;5077476;28;20454;-86
2023/01/17 05:00:41;;;;;;;11.50;6.30;;;0.80;99.90;;;;;;5063722;28;20432;-86
2023/01/17 05:12:37;;;;;;;8.17;5.77;;;0.90;99.90;;;;;;5079953;28;20451;-86
2023/01/17 05:15:23;;;;;;;12.27;6.03;;;1.00;99.90;;;;;;5080573;28;20550;-86
2023/01/17 05:31:26;;;;;;;9.83;5.87;;;1.00;99.90;;;;;;5080421;28;20415;-86
2023/01/17 05:37:49;;;;;;;10.80;6.07;;;1.00;99.90;;;;;;5075978;28;20427;-87
2023/01/17 05:43:13;;;;;;;8.83;6.20;;;1.00;99.90;;;;;;5080428;28;20483;-86
2023/01/17 05:52:26;;;;;;;18.57;6.10;;;1.00;99.90;;;;;;5077499;28;20423;-87
2023/01/17 05:55:44;;;;;;;10.17;6.70;;;0.80;99.90;;;;;;5079789;28;20467;-86
2023/01/17 06:01:55;;;;;;;14.33;6.77;;;0.70;99.90;;;;;;5022747;28;20466;-87
2023/01/17 06:08:45;;;;;;;10.30;6.30;;;0.70;99.90;;;;;;5031178;28;20452;-84
2023/01/17 06:15:00;;;;;;;11.80;7.70;;;0.80;99.90;;;;;;5014893;28;20247;-86
2023/01/17 06:17:44;;;;;;;8.33;7.50;;;0.70;99.90;;;;;;5014936;28;20485;-87
2023/01/17 06:20:38;;;;;;;10.80;7.07;;;0.70;99.90;;;;;;5018610;28;20427;-87
2023/01/17 06:26:58;;;;;;;8.70;7.03;;;0.70;99.90;;;;;;5061662;28;20507;-87
2023/01/17 06:30:14;;;;;;;8.97;7.63;;;0.60;99.90;;;;;;5078703;28;20447;-87
2023/01/17 06:36:42;;;;;;;10.90;7.50;;;0.40;99.90;;;;;;5082451;28;20431;-86
2023/01/17 06:43:07;;;;;;;12.07;8.77;;;0.70;99.90;;;;;;5047458;28;20432;-87
2023/01/17 06:55:57;;;;;;;16.10;9.27;;;0.60;99.90;;;;;;5097546;28;20529;-87
2023/01/17 07:01:58;;;;;;;14.60;9.70;;;0.50;99.90;;;;;;5088744;28;20438;-86
2023/01/17 07:08:32;;;;;;;14.37;10.77;;;0.50;99.90;;;;;;5095746;28;20530;-86
2023/01/17 07:11:36;;;;;;;17.07;10.67;;;0.50;99.90;;;;;;5081284;28;20465;-86
2023/01/17 07:14:21;;;;;;;20.50;10.93;;;0.50;99.90;;;;;;5077488;28;20501;-86
2023/01/17 07:20:48;;;;;;;20.70;12.43;;;0.50;99.90;;;;;;5094632;28;20201;-87
2023/01/17 07:23:29;;;;;;;17.23;11.07;;;0.40;99.90;;;;;;5084698;28;20465;-86
2023/01/17 07:26:20;;;;;;;20.73;11.77;;;0.60;99.90;;;;;;5076152;28;20455;-86
2023/01/17 07:35:33;;;;;;;18.50;10.87;;;0.50;99.90;;;;;;5071268;28;20502;-81
2023/01/17 07:38:04;;;;;;;17.27;11.63;;;0.50;99.90;;;;;;5072512;28;20439;-84
2023/01/17 07:40:33;;;;;;;16.57;10.90;;;0.40;99.90;;;;;;5072814;28;20478;-85
2023/01/17 07:43:16;;;;;;;16.00;10.83;;;0.40;99.90;;;;;;5072329;28;20458;-83
2023/01/17 07:45:48;;;;;;;20.27;11.17;;;0.50;99.90;;;;;;5072601;28;20459;-84
2023/01/17 07:48:16;;;;;;;15.40;11.50;;;0.50;99.90;;;;;;5117671;22;20444;-92
2023/01/17 07:50:54;;;;;;;19.63;11.43;;;0.40;99.90;;;;;;5125977;28;20933;-92
2023/01/17 08:03:41;;;;;;;21.70;11.57;;;0.30;99.90;;;;;;5144255;22;20485;-80
2023/01/17 08:06:21;;;;;;;19.20;12.53;;;0.30;99.90;;;;;;5125487;28;20440;-80
2023/01/17 08:08:58;;;;;;;20.13;11.77;;;0.30;99.90;;;;;;5126819;28;20456;-81
2023/01/17 08:11:47;;;;;;;16.40;11.70;;;0.30;99.90;;;;;;5135869;28;20425;-77
2023/01/17 08:14:53;;;;;;;20.77;12.57;;;0.30;99.90;;;;;;5114997;28;20536;-86
2023/01/17 08:18:03;;;;;;;19.87;12.43;;;0.40;99.90;;;;;;5112213;28;20437;-85
2023/01/17 08:20:39;;;;;;;19.00;12.80;;;0.50;99.90;;;;;;5115898;28;20464;-86
2023/01/17 08:23:30;;;;;;;24.10;15.03;;;0.40;99.90;;;;;;5116625;28;20434;-86
2023/01/17 08:28:59;;;;;;;21.27;14.57;;;0.70;99.90;;;;;;5658216;22;20483;-78
2023/01/17 08:31:30;;;;;;;22.57;14.50;;;0.60;99.90;;;;;;5137474;28;20805;-78
2023/01/17 08:34:05;;;;;;;22.00;13.60;;;0.60;99.90;;;;;;5129072;28;20463;-78
2023/01/17 08:36:31;;;;;;;24.80;14.57;;;0.40;99.90;;;;;;5117181;28;20958;-78
2023/01/17 08:39:04;;;;;;;19.20;14.27;;;0.30;99.90;;;;;;5116916;28;20449;-78
2023/01/17 08:41:35;;;;;;;26.67;16.13;;;0.30;99.90;;;;;;5114935;28;20808;-78
2023/01/17 08:44:03;;;;;;;24.20;14.93;;;0.30;99.90;;;;;;5128655;28;20966;-78
2023/01/17 08:46:32;;;;;;;25.37;15.83;;;0.30;99.90;;;;;;5115558;28;20848;-79
2023/01/17 08:49:05;;;;;;;23.43;14.07;;;0.50;99.90;;;;;;5131703;28;20801;-78
2023/01/17 08:51:43;;;;;;;21.73;14.73;;;0.40;99.90;;;;;;5119066;28;20447;-79
2023/01/17 08:54:13;;;;;;;23.80;14.27;;;0.40;99.90;;;;;;5132160;28;20462;-79
2023/01/17 08:56:45;;;;;;;21.37;13.67;;;0.60;99.90;;;;;;5134071;27;20572;-79
2023/01/17 08:59:14;;;;;;;19.70;13.33;;;0.70;99.90;;;;;;5134930;27;20447;-79
2023/01/17 09:01:44;;;;;;;21.87;13.37;;;0.80;99.90;;;;;;5119840;28;20437;-79
2023/01/17 09:04:12;;;;;;;18.40;13.17;;;0.80;99.90;;;;;;5120655;28;20445;-80
2023/01/17 09:06:44;;;;;;;21.40;14.40;;;0.80;99.90;;;;;;5132580;27;20444;-79
2023/01/17 09:09:19;;;;;;;21.93;12.80;;;0.90;99.90;;;;;;5101654;28;20924;-80
2023/01/17 09:11:46;;;;;;;17.27;13.47;;;1.00;99.90;;;;;;5119294;27;20494;-78
2023/01/17 09:14:14;;;;;;;17.53;12.77;;;1.00;99.90;;;;;;5100963;28;20449;-79
2023/01/17 09:16:44;;;;;;;22.43;13.50;;;1.00;99.90;;;;;;5119262;27;20480;-79
2023/01/17 09:19:13;;;;;;;19.63;13.17;;;1.00;99.90;;;;;;5113523;27;20803;-79
2023/01/17 09:21:44;;;;;;;26.87;13.97;;;0.90;99.90;;;;;;5139834;27;20473;-79
2023/01/17 09:24:14;;;;;;;20.53;13.40;;;0.90;99.90;;;;;;5104784;28;20494;-79
2023/01/17 09:26:44;;;;;;;17.73;12.57;;;0.70;99.90;;;;;;5122167;27;20460;-78
2023/01/17 09:29:16;;;;;;;17.33;12.37;;;0.70;99.90;;;;;;5124014;28;20476;-79
2023/01/17 09:31:43;;;;;;;16.80;12.60;;;0.70;99.90;;;;;;5132802;27;20441;-81
2023/01/17 10:11:47;;;;;;;19.33;14.00;;;1.60;99.90;;;;;;5107448;26;20465;-91
2023/01/17 10:14:42;;;;;;;14.00;10.73;;;1.70;99.90;;;;;;5089173;28;20511;-91
2023/01/17 10:21:01;;;;;;;15.55;12.40;;;1.90;99.90;;;;;;5112822;28;20421;-93
2023/01/17 10:27:21;;;;;;;17.13;9.13;;;2.10;99.90;;;;;;5113330;28;20476;-93
2023/01/17 10:37:02;;;;;;;13.03;8.23;;;2.10;99.90;;;;;;5129559;28;20478;-93
2023/01/17 10:47:05;;;;;;;13.90;8.43;;;2.40;99.90;;;;;;5112611;28;20465;-94
2023/01/17 10:56:20;;;;;;;14.37;8.63;;;2.50;99.90;;;;;;5120473;22;20490;-87
2023/01/17 10:59:37;;;;;;;11.83;7.77;;;2.60;99.90;;;;;;5423761;22;20490;-92
2023/01/17 11:04:57;;;;;;;13.07;7.77;;;2.90;99.90;;;;;;5137933;22;20477;-90
2023/01/17 11:07:30;;;;;;;14.43;7.63;;;2.80;99.90;;;;;;5121454;28;20572;-90
2023/01/17 11:10:03;;;;;;;10.87;7.57;;;2.90;99.90;;;;;;5121221;28;20441;-90
2023/01/17 11:12:39;;;;;;;12.67;8.00;;;2.90;99.90;;;;;;5116966;27;20460;-91
2023/01/17 11:15:24;;;;;;;11.70;6.70;;;2.90;99.90;;;;;;5108134;28;21000;-92
2023/01/17 11:21:18;;;;;;;9.30;6.90;;;3.30;99.90;;;;;;5112753;28;20440;-91
2023/01/17 11:27:25;;;;;;;15.15;9.27;;;3.40;99.90;;;;;;5118753;28;20521;-88
2023/01/17 11:30:34;;;;;;;9.33;6.73;;;3.50;99.90;;;;;;5127777;28;20211;-93
2023/01/17 11:35:51;;;;;;;15.63;6.80;;;3.70;99.90;;;;;;5137660;27;20228;-92
2023/01/17 11:39:13;;;;;;;11.13;5.90;;;3.60;99.90;;;;;;5118126;28;20450;-93
2023/01/17 11:45:25;;;;;;;12.07;6.47;;;3.60;99.90;;;;;;5123965;27;20428;-92
2023/01/17 11:48:12;;;;;;;7.37;5.20;;;3.80;99.90;;;;;;5124201;27;20177;-92
2023/01/17 11:50:41;;;;;;;8.10;4.93;;;3.90;99.90;;;;;;5125854;27;20454;-90
2023/01/17 11:53:20;;;;;;;9.67;4.53;;;4.10;99.90;;;;;;5117482;27;20225;-91
2023/01/17 11:56:00;;;;;;;9.50;2.93;;;4.10;99.90;;;;;;5111745;28;20228;-92
2023/01/17 11:58:28;;;;;;;7.90;3.60;;;4.00;99.90;;;;;;5109817;27;20460;-91
2023/01/17 12:01:01;;;;;;;7.63;4.10;;;3.90;99.90;;;;;;5101958;28;20481;-91
2023/01/17 12:03:59;;;;;;;7.90;3.93;;;4.10;99.90;;;;;;5109699;28;20465;-93
2023/01/17 12:06:37;;;;;;;3.60;2.70;;;4.30;99.90;;;;;;5097030;28;20467;-91
2023/01/17 12:09:21;;;;;;;8.03;3.00;;;4.30;99.90;;;;;;5107628;28;20441;-93
2023/01/17 12:15:02;;;;;;;4.13;2.13;;;4.30;99.90;;;;;;5105256;28;20232;-91
2023/01/17 12:17:50;;;;;;;4.03;2.20;;;4.20;99.90;;;;;;5103320;28;20217;-91
2023/01/17 12:20:24;;;;;;;7.70;3.20;;;4.30;99.90;;;;;;5106344;28;20208;-93
2023/01/17 12:23:13;;;;;;;6.03;3.03;;;4.20;99.90;;;;;;5103808;28;20221;-94
2023/01/17 12:25:53;;;;;;;6.10;2.30;;;4.20;99.90;;;;;;5096654;28;20289;-92
2023/01/17 12:28:51;;;;;;;9.23;2.70;;;4.40;99.90;;;;;;5100803;28;20192;-93
2023/01/17 12:31:26;;;;;;;2.77;1.90;;;4.10;99.90;;;;;;5121065;28;20247;-93
2023/01/17 12:33:59;;;;;;;6.33;2.47;;;4.10;99.90;;;;;;5113246;28;20292;-90
2023/01/17 12:36:40;;;;;;;8.77;2.40;;;4.30;99.90;;;;;;5113416;28;20303;-94
2023/01/17 12:39:10;;;;;;;4.60;2.00;;;4.50;99.90;;;;;;5108711;28;20234;-92
2023/01/17 12:42:02;;;;;;;4.20;2.20;;;4.60;99.90;;;;;;5122000;27;20193;-91
2023/01/17 12:44:50;;;;;;;5.13;1.87;;;4.70;99.90;;;;;;5115185;28;20219;-92
2023/01/17 12:47:19;;;;;;;7.50;2.83;;;4.70;99.90;;;;;;5107878;28;20217;-91
2023/01/17 12:49:56;;;;;;;6.40;1.97;;;4.90;99.90;;;;;;5109881;28;20662;-91
2023/01/17 12:52:32;;;;;;;5.30;2.03;;;5.00;99.90;;;;;;5114550;28;20216;-92
2023/01/17 12:55:04;;;;;;;3.87;2.03;;;4.80;99.90;;;;;;5119445;28;20250;-92
2023/01/17 12:57:47;;;;;;;4.37;2.03;;;5.10;99.90;;;;;;5111677;28;20208;-91
2023/01/17 13:00:21;;;;;;;9.63;3.00;;;5.20;99.90;;;;;;5107077;28;20300;-92
2023/01/17 13:02:57;;;;;;;2.40;1.97;;;5.20;99.90;;;;;;5107283;28;20232;-93
2023/01/17 13:05:29;;;;;;;5.07;2.30;;;5.10;99.90;;;;;;5115491;27;20239;-91
2023/01/17 13:08:05;;;;;;;6.97;1.90;;;5.00;99.90;;;;;;5115130;28;20300;-91
2023/01/17 13:10:35;;;;;;;8.00;2.33;;;5.00;99.90;;;;;;5118015;28;20283;-91
2023/01/17 13:13:13;;;;;;;8.83;3.27;;;4.70;99.90;;;;;;5119237;27;20203;-92
2023/01/17 13:15:42;;;;;;;2.47;1.60;;;4.50;99.90;;;;;;5100679;28;20277;-92
2023/01/17 13:18:16;;;;;;;5.30;1.20;;;4.50;99.90;;;;;;5112871;28;20636;-93
2023/01/17 13:21:14;;;;;;;4.10;1.60;;;4.40;99.90;;;;;;5099515;28;20643;-90
2023/01/17 13:24:00;;;;;;;6.93;2.00;;;4.40;99.90;;;;;;5099749;28;20860;-91
2023/01/17 13:26:35;;;;;;;5.67;1.50;;;4.40;99.90;;;;;;5117611;27;20204;-91
2023/01/17 13:29:20;;;;;;;5.13;1.50;;;4.70;99.90;;;;;;5110338;28;20221;-92
2023/01/17 13:31:52;;;;;;;3.80;1.50;;;4.70;99.90;;;;;;5124688;27;20200;-91
2023/01/17 13:34:48;;;;;;;7.43;1.10;;;4.80;99.90;;;;;;5121195;28;20221;-92
2023/01/17 13:37:54;;;;;;;2.30;1.30;;;5.10;99.90;;;;;;5103573;28;20670;-92
2023/01/17 13:40:31;;;;;;;2.97;1.27;;;5.00;99.90;;;;;;5095950;28;20201;-92
2023/01/17 13:43:01;;;;;;;2.80;1.57;;;4.60;99.90;;;;;;5115874;27;20221;-93
2023/01/17 13:45:31;;;;;;;6.97;1.67;;;4.80;99.90;;;;;;5113413;28;20208;-91
2023/01/17 13:48:30;;;;;;;4.68;2.00;;;4.90;99.90;;;;;;5105379;28;20451;-95
2023/01/17 13:51:01;;;;;;;5.93;2.03;;;4.80;99.90;;;;;;5097884;28;20307;-91
2023/01/17 13:53:57;;;;;;;3.53;1.60;;;4.60;99.90;;;;;;5103845;28;20272;-91
2023/01/17 13:56:30;;;;;;;3.80;2.10;;;4.60;99.90;;;;;;5107369;28;20224;-94
2023/01/17 13:59:03;;;;;;;4.73;1.70;;;4.50;99.90;;;;;;5105655;28;20556;-90
2023/01/17 14:01:52;;;;;;;4.80;1.80;;;4.50;99.90;;;;;;5107822;28;20263;-90
2023/01/17 14:04:19;;;;;;;3.67;1.40;;;4.70;99.90;;;;;;5108171;28;20386;-90
2023/01/17 14:06:48;;;;;;;3.53;1.27;;;4.60;99.90;;;;;;5106694;27;20224;-91
2023/01/17 14:09:21;;;;;;;2.67;1.20;;;4.60;99.90;;;;;;5121261;28;20200;-91
2023/01/17 14:12:24;;;;;;;3.47;1.60;;;4.70;99.90;;;;;;5103801;28;20657;-90
2023/01/17 14:14:55;;;;;;;6.68;2.75;;;4.60;99.90;;;;;;5103604;27;20455;-93
2023/01/17 14:17:51;;;;;;;5.63;1.97;;;4.70;99.90;;;;;;5098992;28;20255;-95
2023/01/17 14:20:50;;;;;;;5.53;2.07;;;4.60;99.90;;;;;;5104286;28;20231;-93
2023/01/17 14:23:50;;;;;;;3.37;1.37;;;4.90;99.90;;;;;;5115206;28;20734;-90
2023/01/17 14:26:45;;;;;;;3.57;1.40;;;4.80;99.90;;;;;;5114646;28;20200;-93
2023/01/17 14:29:48;;;;;;;7.37;1.90;;;4.90;99.90;;;;;;5120875;27;20280;-92
2023/01/17 14:32:19;;;;;;;3.00;1.60;;;5.00;99.90;;;;;;5120219;27;20602;-90
2023/01/17 14:34:49;;;;;;;3.77;1.80;;;4.70;99.90;;;;;;5105703;28;20665;-92
2023/01/17 14:37:46;;;;;;;3.60;1.27;;;4.70;99.90;;;;;;5107099;28;20225;-89
2023/01/17 14:40:24;;;;;;;5.77;2.17;;;4.50;99.90;;;;;;5095636;27;20977;-92
2023/01/17 14:43:00;;;;;;;3.67;1.43;;;4.50;99.90;;;;;;5123854;27;20215;-91
2023/01/17 14:45:30;;;;;;;8.33;1.57;;;4.40;99.90;;;;;;5137533;27;20282;-93
2023/01/17 14:47:59;;;;;;;3.83;1.53;;;4.40;99.90;;;;;;5123347;27;20203;-94
2023/01/17 14:50:37;;;;;;;3.23;1.43;;;4.40;99.90;;;;;;5124168;27;20295;-93
2023/01/17 14:53:16;;;;;;;3.57;1.50;;;4.60;99.90;;;;;;5117972;28;20212;-94
2023/01/17 14:55:53;;;;;;;5.43;1.97;;;4.70;99.90;;;;;;5123691;27;20196;-92
2023/01/17 14:58:23;;;;;;;4.67;1.70;;;4.70;99.90;;;;;;5137408;27;20668;-93
2023/01/17 15:00:53;;;;;;;3.90;1.67;;;4.80;99.90;;;;;;5138095;27;20221;-90
2023/01/17 15:03:21;;;;;;;4.40;1.57;;;4.60;99.90;;;;;;5124885;27;20236;-93
2023/01/17 15:05:52;;;;;;;5.83;1.73;;;4.40;99.90;;;;;;5124077;27;20828;-92
2023/01/17 15:08:21;;;;;;;5.23;1.83;;;4.30;99.90;;;;;;5124177;27;20234;-93
2023/01/17 15:10:55;;;;;;;3.97;1.70;;;4.20;99.90;;;;;;5120337;27;20598;-93
2023/01/17 15:13:34;;;;;;;4.27;1.90;;;4.40;99.90;;;;;;5117505;28;20235;-92
2023/01/17 15:16:24;;;;;;;3.27;1.77;;;4.50;99.90;;;;;;5119430;28;20224;-94
2023/01/17 15:18:55;;;;;;;5.93;1.70;;;4.60;99.90;;;;;;5124389;27;20556;-93
2023/01/17 15:21:23;;;;;;;3.83;2.40;;;4.60;99.90;;;;;;5137183;27;20196;-94
2023/01/17 15:23:59;;;;;;;2.73;1.90;;;4.70;99.90;;;;;;5129896;27;20242;-92
2023/01/17 15:26:32;;;;;;;4.43;2.07;;;4.80;99.90;;;;;;5118899;27;20641;-92
2023/01/17 15:29:05;;;;;;;7.37;2.50;;;4.70;99.90;;;;;;5126056;27;20188;-90
2023/01/17 15:31:43;;;;;;;7.37;3.53;;;4.80;99.90;;;;;;5121880;27;20207;-93
2023/01/17 15:34:27;;;;;;;7.10;2.93;;;4.80;99.90;;;;;;5105337;27;20303;-93
2023/01/17 15:36:57;;;;;;;7.87;2.73;;;4.60;99.90;;;;;;5137404;27;20219;-93
2023/01/17 15:39:29;;;;;;;4.40;1.97;;;4.60;99.90;;;;;;5136527;27;20214;-91
2023/01/17 15:41:58;;;;;;;5.53;2.13;;;4.60;99.90;;;;;;5137673;27;20576;-91
2023/01/17 15:44:29;;;;;;;6.43;2.90;;;4.50;99.90;;;;;;5123438;28;20283;-92
2023/01/17 15:46:58;;;;;;;5.00;2.10;;;4.40;99.90;;;;;;5124279;28;20230;-92
2023/01/17 15:49:27;;;;;;;4.30;2.00;;;4.40;99.90;;;;;;5129537;28;20296;-90
2023/01/17 15:51:57;;;;;;;3.43;1.93;;;4.30;99.90;;;;;;5116484;28;20207;-91
2023/01/17 15:54:33;;;;;;;5.57;2.00;;;4.30;99.90;;;;;;5123342;28;20238;-91
2023/01/17 15:57:17;;;;;;;3.10;1.83;;;4.30;99.90;;;;;;5136073;28;20238;-92
2023/01/17 15:59:48;;;;;;;4.83;2.20;;;4.20;99.90;;;;;;5136284;28;20222;-91
2023/01/17 16:02:43;;;;;;;8.73;2.83;;;4.00;99.90;;;;;;5120744;28;20427;-91
2023/01/17 16:05:43;;;;;;;13.77;2.50;;;4.10;99.90;;;;;;5118967;27;20204;-94
2023/01/17 16:08:28;;;;;;;6.90;2.10;;;4.00;99.90;;;;;;5057633;28;20556;-91
2023/01/17 16:11:00;;;;;;;10.03;3.40;;;3.90;99.90;;;;;;5049965;28;20294;-93
2023/01/17 16:13:31;;;;;;;5.30;2.30;;;3.80;99.90;;;;;;5101291;27;20483;-93
2023/01/17 16:16:17;;;;;;;4.93;2.13;;;3.70;99.90;;;;;;5138539;27;20447;-91
2023/01/17 16:18:47;;;;;;;7.87;2.70;;;3.50;99.90;;;;;;5131221;27;20227;-94
2023/01/17 16:21:24;;;;;;;11.13;2.80;;;3.50;99.90;;;;;;5129880;27;20508;-91
2023/01/17 16:23:52;;;;;;;6.30;3.07;;;3.30;99.90;;;;;;5128294;27;20544;-92
2023/01/17 16:26:20;;;;;;;9.27;3.20;;;3.30;99.90;;;;;;5126883;27;20468;-92
2023/01/17 16:28:49;;;;;;;8.40;3.73;;;3.30;99.90;;;;;;5134893;27;20761;-91
2023/01/17 16:31:17;;;;;;;4.73;2.37;;;3.30;99.90;;;;;;5132386;27;20971;-91
2023/01/17 16:33:59;;;;;;;8.97;3.63;;;3.10;99.90;;;;;;5135556;27;20468;-92
2023/01/17 16:36:26;;;;;;;8.90;3.23;;;3.10;99.90;;;;;;5127672;27;20468;-92
2023/01/17 16:39:29;;;;;;;4.97;3.20;;;3.00;99.90;;;;;;5131857;27;20441;-92
2023/01/17 16:42:05;;;;;;;4.87;2.80;;;3.00;99.90;;;;;;5126484;27;20948;-91
2023/01/17 16:44:39;;;;;;;9.17;3.40;;;2.90;99.90;;;;;;5130430;28;20475;-92
2023/01/17 16:47:09;;;;;;;9.77;3.53;;;2.90;99.90;;;;;;5139706;27;20427;-93
2023/01/17 16:49:39;;;;;;;10.33;3.80;;;2.70;99.90;;;;;;5145508;27;20428;-92
2023/01/17 16:52:14;;;;;;;8.17;3.83;;;2.70;99.90;;;;;;5144048;27;20431;-92
2023/01/17 17:00:25;;;;;;;7.23;3.27;;;2.60;99.90;;;;;;5135577;28;20466;-92
2023/01/17 17:02:58;;;;;;;9.83;3.57;;;2.40;99.90;;;;;;5136914;27;20510;-93
2023/01/17 17:05:36;;;;;;;6.37;3.80;;;2.50;99.90;;;;;;5128330;27;20517;-92
2023/01/17 17:08:07;;;;;;;6.10;3.63;;;2.50;99.90;;;;;;5120413;28;21118;-93
2023/01/17 17:10:36;;;;;;;8.80;3.70;;;2.40;99.90;;;;;;5122236;27;20448;-92
2023/01/17 17:13:03;;;;;;;11.57;4.40;;;2.40;99.90;;;;;;5125365;27;20460;-94
2023/01/17 17:15:30;;;;;;;9.33;4.83;;;2.30;99.90;;;;;;5122866;27;20444;-91
2023/01/17 17:17:59;;;;;;;9.57;4.87;;;2.30;99.90;;;;;;5125892;27;20489;-92
2023/01/17 17:20:33;;;;;;;6.40;4.43;;;2.20;99.90;;;;;;5126271;27;20441;-92
2023/01/17 17:23:04;;;;;;;8.07;4.97;;;2.20;99.90;;;;;;5125255;27;20464;-91
2023/01/17 17:25:32;;;;;;;8.13;4.60;;;2.20;99.90;;;;;;5120384;27;20445;-93
2023/01/17 17:28:06;;;;;;;6.57;4.43;;;2.10;99.90;;;;;;5126137;27;20900;-93
2023/01/17 17:30:35;;;;;;;9.77;5.20;;;2.10;99.90;;;;;;5129225;27;20840;-94
2023/01/17 17:33:05;;;;;;;11.73;5.03;;;2.00;99.90;;;;;;5132978;27;20460;-92
2023/01/17 17:35:40;;;;;;;9.70;5.87;;;2.00;99.90;;;;;;5133472;27;20453;-92
2023/01/17 17:38:10;;;;;;;11.57;6.33;;;2.00;99.90;;;;;;5119575;28;20506;-91
2023/01/17 17:40:37;;;;;;;13.87;7.17;;;2.00;99.90;;;;;;5119621;28;20482;-92
2023/01/17 17:43:04;;;;;;;13.07;6.37;;;2.00;99.90;;;;;;5134855;27;20484;-92
2023/01/17 17:45:38;;;;;;;9.87;5.57;;;1.90;99.90;;;;;;5134015;27;20466;-93
2023/01/17 17:48:17;;;;;;;8.37;5.47;;;2.00;99.90;;;;;;5120522;28;20441;-92
2023/01/17 17:50:57;;;;;;;7.77;5.50;;;2.00;99.90;;;;;;5128193;27;20560;-92
2023/01/17 17:53:23;;;;;;;11.10;6.20;;;2.00;99.90;;;;;;5126681;27;20560;-91
2023/01/17 17:55:54;;;;;;;12.73;5.87;;;2.00;99.90;;;;;;5129201;27;20493;-92
2023/01/17 17:58:26;;;;;;;16.23;6.03;;;2.00;99.90;;;;;;5127836;27;20572;-92
2023/01/17 18:00:53;;;;;;;10.90;5.70;;;1.90;99.90;;;;;;5122430;27;20543;-92
2023/01/17 18:03:21;;;;;;;10.60;6.17;;;1.90;99.90;;;;;;5123183;27;20492;-92
2023/01/17 18:05:52;;;;;;;11.37;5.93;;;1.90;99.90;;;;;;5117492;27;20492;-91
2023/01/17 18:08:31;;;;;;;11.97;6.50;;;1.90;99.90;;;;;;5125668;27;20911;-92
2023/01/17 18:11:03;;;;;;;11.43;6.37;;;1.80;99.90;;;;;;5116749;28;20901;-94
2023/01/17 18:13:33;;;;;;;12.17;6.43;;;1.70;99.90;;;;;;5116659;28;20506;-92
2023/01/17 18:16:08;;;;;;;11.93;7.57;;;1.70;99.90;;;;;;5127763;27;20538;-91
2023/01/17 18:18:44;;;;;;;12.53;8.10;;;1.70;99.90;;;;;;5137260;27;20479;-90
2023/01/17 18:21:16;;;;;;;15.43;8.50;;;1.90;99.90;;;;;;5124854;27;20486;-92
2023/01/17 18:23:47;;;;;;;16.57;9.80;;;1.70;99.90;;;;;;5117078;28;20520;-90
2023/01/17 18:26:16;;;;;;;16.40;10.73;;;1.70;99.90;;;;;;5130809;27;20440;-91
2023/01/17 18:28:47;;;;;;;21.30;12.60;;;1.70;99.90;;;;;;5116702;27;20805;-89
2023/01/17 18:31:23;;;;;;;18.43;10.90;;;1.70;99.90;;;;;;5136495;27;20452;-94
2023/01/17 18:33:49;;;;;;;17.80;10.27;;;1.70;99.90;;;;;;5127154;27;20469;-90
2023/01/17 18:36:23;;;;;;;17.73;10.77;;;1.60;99.90;;;;;;5131656;27;20557;-91
2023/01/17 18:38:53;;;;;;;19.60;10.73;;;1.60;99.90;;;;;;5116328;28;20480;-92
2023/01/17 18:41:26;;;;;;;17.80;11.23;;;1.70;99.90;;;;;;5136581;27;20455;-91
2023/01/17 18:43:56;;;;;;;19.30;10.90;;;1.70;99.90;;;;;;5130251;27;20504;-90
2023/01/17 18:46:26;;;;;;;21.37;12.30;;;1.70;99.90;;;;;;5117572;27;20532;-92
2023/01/17 18:48:55;;;;;;;17.87;12.17;;;1.70;99.90;;;;;;5130662;27;20553;-93
2023/01/17 18:51:24;;;;;;;22.87;10.57;;;1.70;99.90;;;;;;5118041;28;20460;-93
2023/01/17 18:54:02;;;;;;;21.93;10.63;;;1.70;99.90;;;;;;5118046;28;20485;-92
2023/01/17 18:56:32;;;;;;;19.27;11.87;;;1.60;99.90;;;;;;5130886;27;20457;-93
2023/01/17 18:59:05;;;;;;;20.83;12.67;;;1.70;99.90;;;;;;5119447;27;20572;-91
2023/01/17 19:01:34;;;;;;;21.33;13.10;;;1.60;99.90;;;;;;5124198;27;20464;-93
2023/01/17 19:04:03;;;;;;;23.70;13.37;;;1.60;99.90;;;;;;5132778;27;20475;-92
2023/01/17 19:06:36;;;;;;;23.80;14.33;;;1.60;99.90;;;;;;5117904;28;20455;-92
2023/01/17 19:09:08;;;;;;;25.60;15.80;;;1.60;99.90;;;;;;5135445;27;20856;-93
2023/01/17 19:11:43;;;;;;;31.93;18.20;;;1.60;99.90;;;;;;5138942;27;20480;-92
2023/01/17 19:14:14;;;;;;;23.30;13.40;;;1.60;99.90;;;;;;5118316;28;20496;-95
2023/01/17 19:16:43;;;;;;;24.83;14.83;;;1.60;99.90;;;;;;5116692;28;20456;-93
2023/01/17 19:19:22;;;;;;;29.43;17.00;;;1.50;99.90;;;;;;5117140;28;20504;-95
2023/01/17 19:21:54;;;;;;;27.60;15.63;;;1.50;99.90;;;;;;5131833;27;21021;-94
2023/01/17 19:24:28;;;;;;;28.43;17.77;;;1.50;99.90;;;;;;5132970;27;20468;-93
2023/01/17 19:26:55;;;;;;;27.93;18.47;;;1.50;99.90;;;;;;5122702;27;20448;-93
2023/01/17 19:29:22;;;;;;;32.67;20.10;;;1.60;99.90;;;;;;5129421;27;20476;-92
2023/01/17 19:31:50;;;;;;;31.23;18.80;;;1.60;99.90;;;;;;5131253;27;20470;-94
2023/01/17 19:34:19;;;;;;;37.73;20.53;;;1.50;99.90;;;;;;5124052;27;20552;-92
2023/01/17 19:36:46;;;;;;;36.33;21.00;;;1.50;99.90;;;;;;5124129;27;20453;-95
2023/01/17 19:39:13;;;;;;;33.60;20.83;;;1.40;99.90;;;;;;5128391;27;20492;-92
2023/01/17 19:41:44;;;;;;;35.80;20.73;;;1.40;99.90;;;;;;5129618;27;20557;-91
2023/01/17 19:44:12;;;;;;;38.00;20.47;;;1.30;99.90;;;;;;5122958;28;20472;-92
2023/01/17 19:46:40;;;;;;;25.27;18.00;;;1.30;99.90;;;;;;5135290;28;20536;-91
2023/01/17 19:49:09;;;;;;;30.50;18.87;;;1.40;99.90;;;;;;5126916;28;20452;-91
2023/01/17 19:51:38;;;;;;;27.53;18.00;;;1.40;99.90;;;;;;5128450;28;20478;-92
2023/01/17 19:54:06;;;;;;;33.58;22.65;;;1.40;99.90;;;;;;5124295;28;20780;-93
2023/01/17 19:56:34;;;;;;;34.33;19.07;;;1.30;99.90;;;;;;5121860;28;20633;-93
2023/01/17 19:59:03;;;;;;;29.20;17.87;;;1.30;99.90;;;;;;5134565;28;20490;-93
2023/01/17 20:01:33;;;;;;;29.67;18.87;;;1.30;99.90;;;;;;5130771;28;21012;-92
2023/01/17 20:04:03;;;;;;;30.50;19.37;;;1.40;99.90;;;;;;5126702;28;20990;-91
2023/01/17 20:06:34;;;;;;;32.30;19.23;;;1.30;99.90;;;;;;5121572;28;20471;-92
2023/01/17 20:09:01;;;;;;;26.77;18.10;;;1.30;99.90;;;;;;5127715;28;20456;-93